メインページ
METAR-TAF:

METAR-TAF

空港 :

北九州空港

北九州, 日本

緯度: 33-50N, 経度: 130-57E, 海抜: 3m

現時点の気象観測

当レポートは33分前の09:00(UTC)に作成
西の風 9kt
気温 8°C
湿度 53%
気圧 1025 hPa
視程10km以上
高度3000ftの雲はほとんどない
高度5000ftの千切れ雲あり

METAR: RJFR 130900Z 27009KT 9999 FEW030 BKN050 08/M01 Q1025

時間: 18:33 (09:33 UTC)

予報

当レポートは4時間21分前の05:12(UTC)に作成
予報は13日の 06時(UTC)から 14日の 12時(UTC)まで有効
西の風 13kt
視程10km以上
高度3000ftの雲はほとんどない
高度4500ftの千切れ雲あり
13日の 08時(UTC)から 13日の 10時(UTC)まで徐々に
西/南西の風 9kt
13日の 12時(UTC)から 13日の 14時(UTC)まで徐々に
西の風 10kt
13日の 14時(UTC)から 13日の 18時(UTC)まで一時的に
西/北西の風 18kt、最大28ktの突風を伴う

TAF: RJFR 130512Z 1306/1412 28013KT 9999 FEW030 BKN045 BECMG 1308/1310 25009KT BECMG 1312/1314 28010KT TEMPO 1314/1318 29018G28KT

4,000以上の空港の気象観測と天気予報(METAR報とTAF報)

利用可能な観測所は地図上に黄色い丸と赤い丸で示す。

丸の上にカーソルを重ねると観測所名を参照できる。

次にクリックすると気象観測と天気予報を参照できる。

マップの切り替え:黒色「×」印の緑ボタンをクリックして拡大、「-」印の緑ボタンをクリックして縮小、緑色の三角印をクリックして隣りの地図に切り替え


METAR-TAF: